Latest Coastal Weather Observations for Cape Byron

IDN60701

Issued at 4:02 pm EST Friday 1 July 2016 (issued every 10 minutes, with the page automatically refreshed every 10 minutes)

About coastal observations | Map of coastal stations | Coastal observations for NSW | Marine services | Other Formats
Station Details ID: 058216 Name: CAPE BYRON AWS Lat: -28.64 Lon: 153.64 Height: 95.0 m
Data from the previous 72 hours. | See also: Recent months at Cape Byron
Date/Time
EST
Temp
°C
Wind Pressure Rain since
9am
mm
Weather Cloud Vis
km
Sea
Height
m
Swell
Dir  Spd
kts
Gust
kts
hPa Trend Height
m
Period
s
Dir
01/04:00pm 18.7 NNE 8 13 1016.8 - 0.0 - - - - - - -
01/03:30pm 19.7 N 5 11 1016.6 - 0.0 - - - - - - -
01/03:00pm 19.5 WNW 8 13 1016.7 - 0.0 - - - - - - -
01/02:30pm 19.5 W 8 11 1016.8 - 0.0 - - - - - - -
01/02:00pm 19.6 WNW 8 14 1017.0 - 0.0 - - - - - - -
01/01:30pm 19.2 W 10 16 1017.1 - 0.0 - - - - - - -
01/01:00pm 20.4 S 4 7 1017.4 - 0.0 - - - - - - -
01/12:30pm 20.6 NE 7 9 1017.4 - 0.0 - - - - - - -
01/12:00pm 20.5 NNW 5 9 1017.7 - 0.0 - - - - - - -
01/11:30am 18.9 WNW 7 12 1018.0 - 0.0 - - - - - - -
01/11:00am 18.0 WNW 8 12 1018.7 - 0.0 - - - - - - -
01/10:30am 17.0 WNW 9 13 1019.4 - 0.0 - - - - - - -
01/10:00am 16.8 WNW 8 12 1019.6 - 0.0 - - - - - - -
01/09:30am 16.4 WNW 11 18 1019.5 - 0.0 - - - - - - -
01/09:00am 15.7 WNW 10 14 1019.7 - 0.0 - - - - - - -
01/08:30am 15.2 WNW 9 16 1019.4 - 0.0 - - - - - - -
01/08:00am 14.8 NW 5 8 1019.5 - 0.0 - - - - - - -
01/07:30am 14.3 WNW 8 10 1019.4 - 0.0 - - - - - - -
01/07:00am 14.7 W 11 15 1019.2 - 0.0 - - - - - - -
01/06:30am 13.9 WNW 9 11 1018.9 - 0.0 - - - - - - -
01/06:00am 13.7 WNW 10 13 1018.6 - 0.0 - - - - - - -
01/05:30am 13.6 WNW 8 12 1018.4 - 0.0 - - - - - - -
01/05:00am 13.9 NNW 5 9 1018.2 - 0.0 - - - - - - -
01/04:30am 14.1 N 4 6 1018.2 - 0.0 - - - - - - -
01/04:00am 13.7 NNE 3 5 1018.1 - 0.0 - - - - - - -
01/03:30am 13.6 NNE 4 6 1018.2 - 0.0 - - - - - - -
01/03:00am 14.4 N 4 6 1018.2 - 0.0 - - - - - - -
01/02:30am 15.2 NNE 4 6 1018.3 - 0.0 - - - - - - -
01/02:00am 15.8 NNE 5 11 1018.4 - 0.0 - - - - - - -
01/01:30am 16.3 NE 5 8 1018.8 - 0.0 - - - - - - -
01/01:00am 16.0 N 4 7 1019.1 - 0.0 - - - - - - -
01/12:30am 15.5 NNW 4 6 1019.3 - 0.0 - - - - - - -
01/12:00am 15.7 NNE 4 7 1019.5 - 0.0 - - - - - - -
 
Date/Time
EST
Temp
°C
Wind Pressure Rain since
9am
mm
Weather Cloud Vis
km
Sea
Height
m
Swell
Dir  Spd
kts
Gust
kts
hPa Trend Height
m
Period
s
Dir
30/11:30pm 16.2 NNE 5 7 1019.5 - 0.0 - - - - - - -
30/11:00pm 16.4 NNE 5 7 1019.8 - 0.0 - - - - - - -
30/10:30pm 16.9 NE 5 7 1019.9 - 0.0 - - - - - - -
30/10:00pm 16.8 NE 5 7 1020.0 - 0.0 - - - - - - -
30/09:30pm 17.0 NNE 5 7 1020.1 - 0.0 - - - - - - -
30/09:00pm 16.8 NNW 6 10 1020.0 - 0.0 - - - - - - -
30/08:30pm 16.6 N 4 8 1020.5 - 0.0 - - - - - - -
30/08:00pm 17.3 N 5 9 1020.6 - 0.0 - - - - - - -
30/07:30pm 17.6 N 10 15 1020.3 - 0.0 - - - - - - -
30/07:00pm 17.4 N 7 10 1020.7 - 0.0 - - - - - - -
30/06:30pm 17.8 N 12 18 1020.4 - 0.0 - - - - - - -
30/06:00pm 17.7 NNE 11 16 1020.3 - 0.0 - - - - - - -
30/05:30pm 17.6 NNE 11 17 1020.0 - 0.0 - - - - - - -
30/05:00pm 17.6 NNE 10 15 1020.0 - 0.0 - - - - - - -
30/04:30pm 17.7 NNE 9 14 1020.1 - 0.0 - - - - - - -
30/04:00pm 17.9 NE 14 18 1019.8 - 0.0 - - - - - - -
30/03:30pm 18.6 NE 13 15 1020.0 - 0.0 - - - - - - -
30/03:00pm 18.5 NE 12 16 1020.2 - 0.0 - - - - - - -
30/02:30pm 18.7 NE 12 15 1020.4 - 0.0 - - - - - - -
30/02:00pm 19.0 NE 11 14 1020.7 - 0.0 - - - - - - -
30/01:30pm 19.5 NE 10 12 1021.0 - 0.0 - - - - - - -
30/01:00pm 19.9 NE 7 8 1021.6 - 0.0 - - - - - - -
30/12:30pm 20.2 NE 4 5 1022.2 - 0.0 - - - - - - -
30/12:00pm 19.6 ENE 4 5 1022.6 - 0.0 - - - - - - -
30/11:30am 18.2 S 4 5 1023.2 - 0.0 - - - - - - -
30/11:00am 17.6 SW 5 7 1023.7 - 0.0 - - - - - - -
30/10:30am 16.5 WSW 7 9 1024.0 - 0.0 - - - - - - -
30/10:00am 15.5 WSW 8 12 1024.2 - 0.0 - - - - - - -
30/09:30am 14.9 WSW 9 11 1024.4 - 0.0 - - - - - - -
30/09:00am 14.5 WSW 9 12 1024.3 - 0.0 - - - - - - -
30/08:30am 13.9 WSW 11 13 1024.0 - 0.0 - - - - - - -
30/08:00am 13.5 WSW 11 14 1023.9 - 0.0 - - - - - - -
30/07:30am 13.5 WSW 12 14 1023.7 - 0.0 - - - - - - -
30/07:00am 13.6 WSW 13 15 1023.5 - 0.0 - - - - - - -
30/06:30am 13.4 WSW 14 17 1023.3 - 0.0 - - - - - - -
30/06:00am 13.3 WSW 14 18 1023.2 - 0.0 - - - - - - -
30/05:30am 13.3 WSW 14 17 1023.1 - 0.0 - - - - - - -
30/05:00am 13.3 WSW 15 18 1023.0 - 0.0 - - - - - - -
30/04:30am 13.4 WSW 14 18 1023.0 - 0.0 - - - - - - -
30/04:00am 13.4 WSW 15 18 1023.1 - 0.0 - - - - - - -
30/03:30am 13.4 WSW 15 18 1023.3 - 0.0 - - - - - - -
30/03:00am 13.4 WSW 17 21 1023.5 - 0.0 - - - - - - -
30/02:30am 13.5 WSW 15 18 1023.6 - 0.0 - - - - - - -
30/02:00am 13.6 WSW 16 18 1023.9 - 0.0 - - - - - - -
30/01:30am 13.7 WSW 15 18 1024.2 - 0.0 - - - - - - -
30/01:00am 13.8 WSW 14 17 1024.5 - 0.0 - - - - - - -
30/12:30am 14.3 WSW 13 16 1024.6 - 0.0 - - - - - - -
30/12:00am 14.0 WSW 13 15 1024.7 - 0.0 - - - - - - -
 
Date/Time
EST
Temp
°C
Wind Pressure Rain since
9am
mm
Weather Cloud Vis
km
Sea
Height
m
Swell
Dir  Spd
kts
Gust
kts
hPa Trend Height
m
Period
s
Dir
29/11:30pm 13.7 WSW 13 15 1025.0 - 0.0 - - - - - - -
29/11:00pm 14.1 SW 13 15 1025.2 - 0.0 - - - - - - -
29/10:30pm 14.4 SW 12 14 1025.4 - 0.0 - - - - - - -
29/10:00pm 14.3 SW 12 14 1025.4 - 0.0 - - - - - - -
29/09:30pm 14.4 SW 11 13 1025.6 - 0.0 - - - - - - -
29/09:00pm 14.5 SW 10 12 1025.7 - 0.0 - - - - - - -
29/08:30pm 14.5 SW 11 14 1025.8 - 0.0 - - - - - - -
29/08:00pm 14.7 SW 12 14 1026.1 - 0.0 - - - - - - -
29/07:30pm 14.6 SW 12 14 1026.1 - 0.0 - - - - - - -
29/07:00pm 14.6 SW 13 15 1025.9 - 0.0 - - - - - - -
29/06:30pm 14.3 SW 11 14 1025.7 - 0.0 - - - - - - -
29/06:00pm 14.4 SW 12 14 1025.4 - 0.0 - - - - - - -
29/05:30pm 14.3 SW 10 12 1025.2 - 0.0 - - - - - - -
29/05:00pm 14.9 SW 11 15 1025.2 - 0.0 - - - - - - -
29/04:30pm 15.6 SW 13 18 1025.1 - 0.0 - - - - - - -
29/04:00pm 16.1 SW 13 18 1024.9 - 0.0 - - - - - - -
29/03:30pm 16.5 SSW 17 22 1024.7 - 0.0 - - - - - - -
29/03:00pm 16.7 SSW 17 23 1024.4 - 0.0 - - - - - - -
29/02:30pm 16.9 SSW 18 23 1024.2 - 0.0 - - - - - - -
29/02:00pm 16.9 SSW 18 23 1024.2 - 0.0 - - - - - - -
29/01:30pm 17.0 SSW 19 22 1024.3 - 0.0 - - - - - - -
29/01:00pm 17.4 SW 13 18 1024.5 - 0.0 - - - - - - -
29/12:30pm 17.1 SW 13 19 1024.9 - 0.0 - - - - - - -
29/12:00pm 16.9 SW 14 18 1025.2 - 0.0 - - - - - - -
29/11:30am 16.5 SW 15 21 1025.5 - 0.0 - - - - - - -
29/11:00am 16.1 SW 15 23 1025.7 - 0.0 - - - - - - -
29/10:30am 15.5 SW 16 22 1026.1 - 0.0 - - - - - - -
29/10:00am 14.7 SW 18 25 1026.0 - 0.0 - - - - - - -
29/09:30am 13.7 SW 18 22 1026.3 - 0.0 - - - - - - -
29/09:00am 13.2 SW 19 23 1026.0 - 0.0 - - - - - - -
29/08:30am 12.5 SW 18 23 1026.0 - 0.0 - - - - - - -
29/08:00am 11.9 WSW 18 23 1025.6 - 0.0 - - - - - - -
29/07:30am 11.7 SW 18 21 1025.4 - 0.0 - - - - - - -
29/07:00am 11.3 SW 19 23 1025.3 - 0.0 - - - - - - -
29/06:30am 11.3 SW 19 24 1025.1 - 0.0 - - - - - - -
29/06:00am 11.3 WSW 19 22 1024.9 - 0.0 - - - - - - -
29/05:30am 11.4 WSW 19 23 1024.7 - 0.0 - - - - - - -
29/05:00am 11.5 WSW 18 23 1024.4 - 0.0 - - - - - - -
29/04:30am 11.8 WSW 18 24 1024.3 - 0.0 - - - - - - -
29/04:00am 11.7 WSW 18 22 1024.0 - 0.0 - - - - - - -
29/03:30am 11.9 WSW 15 19 1024.0 - 0.0 - - - - - - -
29/03:00am 12.2 WSW 15 19 1023.7 - 0.0 - - - - - - -
29/02:30am 12.4 WSW 15 21 1023.8 - 0.0 - - - - - - -
29/02:00am 12.6 WSW 16 20 1023.9 - 0.0 - - - - - - -
29/01:30am 13.5 SW 17 23 1023.8 - 0.0 - - - - - - -
29/01:00am 13.7 SW 18 23 1023.8 - 0.0 - - - - - - -
29/12:30am 13.9 SW 17 23 1023.9 - 0.0 - - - - - - -
29/12:00am 13.9 SW 17 21 1023.9 - 0.0 - - - - - - -
 
Date/Time
EST
Temp
°C
Wind Pressure Rain since
9am
mm
Weather Cloud Vis
km
Sea
Height
m
Swell
Dir  Spd
kts
Gust
kts
hPa Trend Height
m
Period
s
Dir
28/11:30pm 14.1 SW 17 24 1023.9 - 0.0 - - - - - - -
28/11:00pm 14.0 SW 18 24 1024.0 - 0.0 - - - - - - -
28/10:30pm 14.2 SW 19 25 1024.0 - 0.0 - - - - - - -
28/10:00pm 14.1 SW 17 21 1023.9 - 0.0 - - - - - - -
28/09:30pm 14.1 SW 17 21 1023.8 - 0.0 - - - - - - -
28/09:00pm 14.1 SW 15 20 1023.6 - 0.0 - - - - - - -
28/08:30pm 14.2 SW 15 19 1023.3 - 0.0 - - - - - - -
28/08:00pm 14.4 SW 14 18 1023.1 - 0.0 - - - - - - -
28/07:30pm 14.7 SW 15 19 1022.8 - 0.0 - - - - - - -
28/07:00pm 14.7 SW 15 18 1022.6 - 0.0 - - - - - - -
28/06:30pm 15.0 SW 15 20 1022.2 - 0.0 - - - - - - -
28/06:00pm 14.8 SW 14 17 1021.7 - 0.0 - - - - - - -
28/05:30pm 15.0 SW 12 16 1021.3 - 0.0 - - - - - - -
28/05:00pm 15.4 SW 11 13 1020.8 - 0.0 - - - - - - -
28/04:30pm 16.2 SW 14 21 1020.5 - 0.0 - - - - - - -

Other Formats:

Comma delimited format used in spreadsheet applications
http://www.bom.gov.au/fwo/IDN60701/IDN60701.94599.axf

JavaScript Object Notation format (JSON) in row-major order
http://www.bom.gov.au/fwo/IDN60701/IDN60701.94599.json